Terminal Aerodrome Forecast
Issued by NWS Northern Indiana

Home | Current Version | Previous Version | Graphics & Text | Print | Product List | Glossary On
Versions: 1 2 3 4 5 6 7 8 9 10 11 12 13
962
FTUS43 KIWX 200520
TAFFWA
TAF
KFWA 200520Z 2006/2106 VRB03KT P6SM SCT250
     FM200800 VRB03KT 3SM BR BKN200
     FM201200 11005KT 1/2SM FG OVC005
     FM201400 11006KT 1SM BR BKN005
     FM201600 12007KT 5SM BR SCT010
     FM201800 14009KT P6SM SCT250
     FM210500 17009KT P6SM BKN200=

USA.gov is the U.S. government's official web portal to all federal, state and local government web resources and services.